Aeroporto :
LOGIN :

Iscrizione | Disclaimer

   EN    FR    IT 

 










Sommario :    VFR   VFR Marginale   IFR   IFR Intensivo   IFR Molto Intensivo
Visibilità : 
Base nubi : 
>= 8 km
>= 3000ft
5 / 8 km
1000 / 3000 ft
1500m / 5 km
500 / 1000 ft
800 / 1500m
200 / 500 ft
< 800m
< 200 ft
Simboli :   Temporali  Nebbia  Neve Forte  Precipitazioni Forti  Vento > 20 kt
SIGMETs :   Varie  Temporali  Ghiacco  Turbolenza  Onda orograficha  Ceneri Vulcaniche






- Altitudine del aeroporto : 250 ft


LERI - Alcantarilla

ULTIMO METAR :
  • 291330Z 06006KT 350V110 9999 FEW036 25/09 Q1025 NOSIG

METARs OBSOLETI :
  • 291300Z VRB05KT 9999 FEW036 25/09 Q1025 NOSIG
  • 291230Z 05006KT 350V130 9999 FEW038 24/09 Q1026 NOSIG
  • 291200Z VRB03KT 9999 FEW038 23/09 Q1026 NOSIG
  • 291130Z 05003KT 340V120 CAVOK 23/09 Q1027 NOSIG
  • 291100Z VRB03KT CAVOK 22/10 Q1027 NOSIG

TAF TAF LERI
Valido dal 29 a 09 ore il 30 a 09 ore UTC


290800Z 2909/3009 09006KT CAVOK TX26/2915Z TN11/3007Z



MetMap, La meteo Aeronautica in un colpo d'occhio ! - Copyright ORBIFLY Dicembre 2007 - Disclaimer

ORBIFLY MET'MAP TEAM :

Programmazione e sviluppo : Alexandra Zaïnal
Concezione : Baudouin d'Aumeries
Aiuto per la programmazione : Marc-Olivier Méhu
Supporto tecnico e logistico : Manuel Goepfert
Aiuto per la traduzione : Arnaldo La Scala

Contatto : metmap@orbifly.com




FONTI E CREDITI :

   NOAA